Time;durP1;ratioP1;P1;durP2;ratioP2;P2;SDS_P1;SDS_P2;PMS_P1;PMS_P2;Temp;Humidity;BMP_temperature;BMP_pressure;BME280_temperature;BME280_humidity;BME280_pressure;Samples;Min_cycle;Max_cycle;Signal;HPM_P1;HPM_P2
2022/01/20 00:00:19;;;;;;;;;;;;;;;;;;2110082;28;19936;-63
2022/01/20 00:02:28;;;;;;;;;;;;;;;;;;2109987;28;19924;-61
2022/01/20 00:03:36;;;;;;;;;;;;;;;;;;2109972;28;19929;-62
2022/01/20 00:04:49;;;;;;;;;;;;;;;;;;2109978;28;19935;-62
2022/01/20 00:09:30;;;;;;;;;;;;;;;;;;2109922;28;19930;-61
2022/01/20 00:23:29;;;;;;;;;;;;;;;;;;2108765;28;20067;-66
2022/01/20 00:26:03;;;;;;;;;;;;;;;;;;2108991;28;19928;-62
2022/01/20 00:27:09;;;;;;;;;;;;;;;;;;2108914;28;19998;-61
2022/01/20 00:28:17;;;;;;;;;;;;;;;;;;2101021;28;19947;-62
2022/01/20 00:29:26;;;;;;;;;;;;;;;;;;2109402;28;19932;-66
2022/01/20 00:31:50;;;;;;;;;;;;;;;;;;2109711;28;19928;-66
2022/01/20 00:34:07;;;;;;;;;;;;;;;;;;2108957;28;19931;-67
2022/01/20 00:34:32;;;;;;;;;;;;;;;;;;2100475;28;19929;-60
2022/01/20 00:38:13;;;;;;;;;;;;;;;;;;2109773;28;20005;-62
2022/01/20 00:39:15;;;;;;;;;;;;;;;;;;2109607;28;19932;-68
2022/01/20 00:40:17;;;;;;;;;;;;;;;;;;2109159;28;20758;-66
2022/01/20 00:41:19;;;;;;;;;;;;;;;;;;2109176;28;19929;-63
2022/01/20 00:42:21;;;;;;;;;;;;;;;;;;2109733;28;19925;-61
2022/01/20 00:43:23;;;;;;;;;;;;;;;;;;2109740;28;20116;-63
2022/01/20 00:44:25;;;;;;;;;;;;;;;;;;2109605;28;19929;-62
2022/01/20 00:45:26;;;;;;;;;;;;;;;;;;2109512;28;19925;-62
2022/01/20 00:46:28;;;;;;;;;;;;;;;;;;2109667;28;19924;-62
2022/01/20 00:47:30;;;;;;;;;;;;;;;;;;2109781;28;19924;-62
2022/01/20 00:48:32;;;;;;;;;;;;;;;;;;2109454;28;20005;-61
2022/01/20 00:49:33;;;;;;;;;;;;;;;;;;2109779;28;20770;-65
2022/01/20 00:50:35;;;;;;;;;;;;;;;;;;2109706;28;20050;-63
2022/01/20 00:51:37;;;;;;;;;;;;;;;;;;2109520;28;20640;-62
2022/01/20 00:52:39;;;;;;;;;;;;;;;;;;2109780;28;20909;-65
2022/01/20 00:53:44;;;;;;;;;;;;;;;;;;2109032;28;19924;-62
2022/01/20 00:54:46;;;;;;;;;;;;;;;;;;2109216;28;19936;-61
2022/01/20 00:55:47;;;;;;;;;;;;;;;;;;2109806;28;19983;-61
2022/01/20 00:56:49;;;;;;;;;;;;;;;;;;2109338;28;19979;-61
2022/01/20 00:57:50;;;;;;;;;;;;;;;;;;2109623;28;20018;-65
2022/01/20 00:58:52;;;;;;;;;;;;;;;;;;2108646;28;19924;-62
2022/01/20 00:59:55;;;;;;;;;;;;;;;;;;2109214;28;20811;-61
2022/01/20 01:00:57;;;;;;;;;;;;;;;;;;2109588;28;19924;-62
2022/01/20 01:01:59;;;;;;;;;;;;;;;;;;2109736;28;20772;-61
2022/01/20 01:03:01;;;;;;;;;;;;;;;;;;2109211;28;20783;-63
2022/01/20 01:04:03;;;;;;;;;;;;;;;;;;2109559;28;19934;-61
2022/01/20 01:05:05;;;;;;;;;;;;;;;;;;2109120;28;19925;-61
2022/01/20 01:08:28;;;;;;;;;;;;;;;;;;2109414;28;19929;-63
2022/01/20 01:09:30;;;;;;;;;;;;;;;;;;2109086;28;19929;-61
2022/01/20 01:10:34;;;;;;;;;;;;;;;;;;2109214;28;19924;-62
2022/01/20 01:11:37;;;;;;;;;;;;;;;;;;2109508;28;20050;-61
2022/01/20 01:13:44;;;;;;;;;;;;;;;;;;2109509;28;20051;-63
2022/01/20 01:14:50;;;;;;;;;;;;;;;;;;2109540;28;19932;-63
2022/01/20 01:15:52;;;;;;;;;;;;;;;;;;2109495;28;19935;-62
2022/01/20 01:23:13;;;;;;;;;;;;;;;;;;2109550;28;19925;-62
2022/01/20 01:24:15;;;;;;;;;;;;;;;;;;2109395;28;20608;-62
2022/01/20 01:25:17;;;;;;;;;;;;;;;;;;2109176;28;19924;-62
2022/01/20 01:26:22;;;;;;;;;;;;;;;;;;2109413;28;19924;-61
2022/01/20 01:27:23;;;;;;;;;;;;;;;;;;2109426;28;20753;-61
2022/01/20 01:28:29;;;;;;;;;;;;;;;;;;2109401;28;19929;-62
2022/01/20 01:31:49;;;;;;;;;;;;;;;;;;2109447;28;20043;-60
2022/01/20 01:32:54;;;;;;;;;;;;;;;;;;2108626;28;19928;-62
2022/01/20 01:34:03;;;;;;;;;;;;;;;;;;2108887;28;19925;-66
2022/01/20 01:35:08;;;;;;;;;;;;;;;;;;2109457;28;19971;-63
2022/01/20 01:36:12;;;;;;;;;;;;;;;;;;2109581;28;20736;-63
2022/01/20 01:37:36;;;;;;;;;;;;;;;;;;2109281;28;19929;-62
2022/01/20 01:38:36;;;;;;;;;;;;;;;;;;2109291;28;19931;-63
2022/01/20 01:39:38;;;;;;;;;;;;;;;;;;2109363;28;19928;-69
2022/01/20 01:40:42;;;;;;;;;;;;;;;;;;2109270;28;20770;-62
2022/01/20 01:41:44;;;;;;;;;;;;;;;;;;2109442;28;19928;-64
2022/01/20 01:42:49;;;;;;;;;;;;;;;;;;2109085;28;19935;-64
2022/01/20 01:43:52;;;;;;;;;;;;;;;;;;2109330;28;19936;-63
2022/01/20 01:44:55;;;;;;;;;;;;;;;;;;2109256;28;19932;-63
2022/01/20 01:45:56;;;;;;;;;;;;;;;;;;2109319;28;19928;-65
2022/01/20 01:46:58;;;;;;;;;;;;;;;;;;2109273;28;20785;-63
2022/01/20 01:48:00;;;;;;;;;;;;;;;;;;2109173;28;19935;-62
2022/01/20 01:49:02;;;;;;;;;;;;;;;;;;2109324;28;19925;-64
2022/01/20 01:50:05;;;;;;;;;;;;;;;;;;2108751;28;20042;-66
2022/01/20 01:51:07;;;;;;;;;;;;;;;;;;2100819;28;19925;-63
2022/01/20 01:52:09;;;;;;;;;;;;;;;;;;2108814;28;19929;-66
2022/01/20 01:53:11;;;;;;;;;;;;;;;;;;2109305;28;20031;-60
2022/01/20 01:54:13;;;;;;;;;;;;;;;;;;2109267;28;20063;-61
2022/01/20 01:55:15;;;;;;;;;;;;;;;;;;2109351;28;20002;-63
2022/01/20 01:56:17;;;;;;;;;;;;;;;;;;2109319;28;20072;-61
2022/01/20 01:57:20;;;;;;;;;;;;;;;;;;2109130;28;20638;-62
2022/01/20 01:58:22;;;;;;;;;;;;;;;;;;2109304;28;19932;-61
2022/01/20 01:59:25;;;;;;;;;;;;;;;;;;2109318;28;20716;-61
2022/01/20 02:00:27;;;;;;;;;;;;;;;;;;2108327;28;19928;-65
2022/01/20 02:01:33;;;;;;;;;;;;;;;;;;2108761;28;19932;-63
2022/01/20 02:02:36;;;;;;;;;;;;;;;;;;2109221;28;20583;-64
2022/01/20 02:03:46;;;;;;;;;;;;;;;;;;2109119;28;19928;-67
2022/01/20 02:04:49;;;;;;;;;;;;;;;;;;2108584;28;19928;-62
2022/01/20 02:08:28;;;;;;;;;;;;;;;;;;2109241;28;19932;-61
2022/01/20 02:18:09;;;;;;;;;;;;;;;;;;2110394;28;19924;-64
2022/01/20 02:19:14;;;;;;;;;;;;;;;;;;2110797;28;19934;-62
2022/01/20 02:20:17;;;;;;;;;;;;;;;;;;2110008;28;19928;-61
2022/01/20 02:21:20;;;;;;;;;;;;;;;;;;2110068;28;20805;-61
2022/01/20 02:22:23;;;;;;;;;;;;;;;;;;2110693;28;20085;-62
2022/01/20 02:23:28;;;;;;;;;;;;;;;;;;2110445;28;19931;-67
2022/01/20 02:24:32;;;;;;;;;;;;;;;;;;2110596;28;19932;-66
2022/01/20 02:25:37;;;;;;;;;;;;;;;;;;2110592;28;19975;-64
2022/01/20 02:26:48;;;;;;;;;;;;;;;;;;2110739;28;20733;-63
2022/01/20 02:27:57;;;;;;;;;;;;;;;;;;2110105;28;20062;-65
2022/01/20 02:29:01;;;;;;;;;;;;;;;;;;2103093;28;20624;-62
2022/01/20 02:30:07;;;;;;;;;;;;;;;;;;2110116;28;19928;-69
2022/01/20 02:31:12;;;;;;;;;;;;;;;;;;2110499;28;20053;-71
2022/01/20 02:32:14;;;;;;;;;;;;;;;;;;2110650;28;20772;-67
2022/01/20 02:33:19;;;;;;;;;;;;;;;;;;2110494;28;19982;-71
2022/01/20 02:34:33;;;;;;;;;;;;;;;;;;2110437;28;19924;-71
2022/01/20 02:35:40;;;;;;;;;;;;;;;;;;2109972;28;19929;-71
2022/01/20 02:36:48;;;;;;;;;;;;;;;;;;2110054;28;19924;-72
2022/01/20 02:38:00;;;;;;;;;;;;;;;;;;2110478;28;20961;-70
2022/01/20 02:39:21;;;;;;;;;;;;;;;;;;2110560;28;19928;-73
2022/01/20 02:45:56;;;;;;;;;;;;;;;;;;2110310;28;20770;-63
2022/01/20 02:47:01;;;;;;;;;;;;;;;;;;2109919;28;19928;-61
2022/01/20 02:48:06;;;;;;;;;;;;;;;;;;2109895;28;19925;-65
2022/01/20 02:49:09;;;;;;;;;;;;;;;;;;2109851;28;19971;-62
2022/01/20 02:50:14;;;;;;;;;;;;;;;;;;2109896;28;19929;-62
2022/01/20 02:51:17;;;;;;;;;;;;;;;;;;2110492;28;19929;-63
2022/01/20 02:52:23;;;;;;;;;;;;;;;;;;2110382;28;19924;-62
2022/01/20 02:53:27;;;;;;;;;;;;;;;;;;2110479;28;19931;-64
2022/01/20 02:54:33;;;;;;;;;;;;;;;;;;2109860;28;19932;-63
2022/01/20 02:55:40;;;;;;;;;;;;;;;;;;2109939;28;19931;-62
2022/01/20 02:56:45;;;;;;;;;;;;;;;;;;2110051;28;19924;-63
2022/01/20 02:57:48;;;;;;;;;;;;;;;;;;2109577;28;19928;-62
2022/01/20 02:58:52;;;;;;;;;;;;;;;;;;2109920;28;19931;-64
2022/01/20 02:59:58;;;;;;;;;;;;;;;;;;2109754;28;19932;-66
2022/01/20 03:01:03;;;;;;;;;;;;;;;;;;2102677;28;20664;-65
2022/01/20 03:02:09;;;;;;;;;;;;;;;;;;2109841;28;19978;-61
2022/01/20 03:03:13;;;;;;;;;;;;;;;;;;2109943;28;19924;-62
2022/01/20 03:04:20;;;;;;;;;;;;;;;;;;2110286;28;19925;-71
2022/01/20 03:05:23;;;;;;;;;;;;;;;;;;2110305;28;20759;-62
2022/01/20 03:06:25;;;;;;;;;;;;;;;;;;2110259;28;19925;-62
2022/01/20 03:07:28;;;;;;;;;;;;;;;;;;2110406;28;19928;-63
2022/01/20 03:08:34;;;;;;;;;;;;;;;;;;2110325;28;19928;-61
2022/01/20 03:09:37;;;;;;;;;;;;;;;;;;2110342;28;19928;-62
2022/01/20 03:10:42;;;;;;;;;;;;;;;;;;2110177;28;19924;-62
2022/01/20 03:11:47;;;;;;;;;;;;;;;;;;2110351;28;19928;-62
2022/01/20 03:12:49;;;;;;;;;;;;;;;;;;2110407;28;20623;-66
2022/01/20 03:13:55;;;;;;;;;;;;;;;;;;2110331;28;19924;-62
2022/01/20 03:14:58;;;;;;;;;;;;;;;;;;2110080;28;19966;-65
2022/01/20 03:16:02;;;;;;;;;;;;;;;;;;2109764;28;20629;-67
2022/01/20 03:17:07;;;;;;;;;;;;;;;;;;2109784;28;19931;-64
2022/01/20 03:18:16;;;;;;;;;;;;;;;;;;2110216;28;20648;-64
2022/01/20 03:19:21;;;;;;;;;;;;;;;;;;2110210;28;19925;-64
2022/01/20 03:20:27;;;;;;;;;;;;;;;;;;2110050;28;19978;-61
2022/01/20 03:21:30;;;;;;;;;;;;;;;;;;2109610;28;19925;-65
2022/01/20 03:22:34;;;;;;;;;;;;;;;;;;2101813;28;20063;-63
2022/01/20 03:23:38;;;;;;;;;;;;;;;;;;2109698;28;19928;-66
2022/01/20 03:24:44;;;;;;;;;;;;;;;;;;2109621;28;19962;-62
2022/01/20 03:25:51;;;;;;;;;;;;;;;;;;2109551;28;20035;-62
2022/01/20 03:26:55;;;;;;;;;;;;;;;;;;2110204;28;20035;-63
2022/01/20 03:28:03;;;;;;;;;;;;;;;;;;2110263;28;19928;-60
2022/01/20 03:29:12;;;;;;;;;;;;;;;;;;2110238;28;19929;-61
2022/01/20 03:30:18;;;;;;;;;;;;;;;;;;2110065;28;19978;-62
2022/01/20 03:31:25;;;;;;;;;;;;;;;;;;2109647;28;20047;-63
2022/01/20 03:32:31;;;;;;;;;;;;;;;;;;2109785;28;20826;-63
2022/01/20 03:33:38;;;;;;;;;;;;;;;;;;2109966;28;19983;-64
2022/01/20 03:34:43;;;;;;;;;;;;;;;;;;2110563;28;20002;-65
2022/01/20 03:35:52;;;;;;;;;;;;;;;;;;2110154;28;20732;-64
2022/01/20 03:37:00;;;;;;;;;;;;;;;;;;2110229;28;19924;-65
2022/01/20 03:38:04;;;;;;;;;;;;;;;;;;2110129;28;19925;-61
2022/01/20 03:39:10;;;;;;;;;;;;;;;;;;2109654;28;20046;-66
2022/01/20 03:40:15;;;;;;;;;;;;;;;;;;2109664;28;20747;-65
2022/01/20 03:41:20;;;;;;;;;;;;;;;;;;2110151;28;20047;-63
2022/01/20 03:42:24;;;;;;;;;;;;;;;;;;2110057;28;20763;-66
2022/01/20 03:43:29;;;;;;;;;;;;;;;;;;2109972;28;19928;-66
2022/01/20 03:44:34;;;;;;;;;;;;;;;;;;2109475;28;19936;-65
2022/01/20 03:45:57;;;;;;;;;;;;;;;;;;2109665;28;20715;-65
2022/01/20 03:47:18;;;;;;;;;;;;;;;;;;2110118;28;20615;-66
2022/01/20 03:48:49;;;;;;;;;;;;;;;;;;2109362;28;19924;-68
2022/01/20 03:50:59;;;;;;;;;;;;;;;;;;2110322;28;19924;-63
2022/01/20 03:51:51;;;;;;;;;;;;;;;;;;2110069;28;19931;-62
2022/01/20 03:53:13;;;;;;;;;;;;;;;;;;2110175;28;19932;-62
2022/01/20 03:54:34;;;;;;;;;;;;;;;;;;2109954;28;19924;-62
2022/01/20 03:55:56;;;;;;;;;;;;;;;;;;2110055;28;20006;-61
2022/01/20 03:57:17;;;;;;;;;;;;;;;;;;2109980;28;19987;-63
2022/01/20 03:58:39;;;;;;;;;;;;;;;;;;2110272;28;19998;-62
2022/01/20 04:00:00;;;;;;;;;;;;;;;;;;2109703;28;20056;-64
2022/01/20 04:01:19;;;;;;;;;;;;;;;;;;2109862;28;21270;-62
2022/01/20 04:02:34;;;;;;;;;;;;;;;;;;2110048;28;19935;-62
2022/01/20 04:03:39;;;;;;;;;;;;;;;;;;2109709;28;20699;-64
2022/01/20 04:04:53;;;;;;;;;;;;;;;;;;2109842;28;20719;-63
2022/01/20 04:06:07;;;;;;;;;;;;;;;;;;2109676;28;20636;-62
2022/01/20 04:07:18;;;;;;;;;;;;;;;;;;2109924;28;19931;-62
2022/01/20 04:08:27;;;;;;;;;;;;;;;;;;2109400;28;19929;-63
2022/01/20 04:09:34;;;;;;;;;;;;;;;;;;2109456;28;20037;-62
2022/01/20 04:10:41;;;;;;;;;;;;;;;;;;2108747;28;20893;-63
2022/01/20 04:11:49;;;;;;;;;;;;;;;;;;2100930;28;20807;-61
2022/01/20 04:12:58;;;;;;;;;;;;;;;;;;2109593;28;20006;-62
2022/01/20 04:14:05;;;;;;;;;;;;;;;;;;2109284;28;19935;-65
2022/01/20 04:15:16;;;;;;;;;;;;;;;;;;2109465;28;19929;-62
2022/01/20 04:16:39;;;;;;;;;;;;;;;;;;2109908;28;20762;-62
2022/01/20 04:17:42;;;;;;;;;;;;;;;;;;2109652;28;20762;-62
2022/01/20 04:18:53;;;;;;;;;;;;;;;;;;2109735;28;20017;-63
2022/01/20 04:19:59;;;;;;;;;;;;;;;;;;2109747;28;19924;-69
2022/01/20 04:21:04;;;;;;;;;;;;;;;;;;2110059;28;19963;-64
2022/01/20 04:22:11;;;;;;;;;;;;;;;;;;2110029;28;19924;-65
2022/01/20 04:23:17;;;;;;;;;;;;;;;;;;2109868;28;19997;-63
2022/01/20 04:24:21;;;;;;;;;;;;;;;;;;2109806;28;20010;-63
2022/01/20 04:25:25;;;;;;;;;;;;;;;;;;2109784;28;19929;-66
2022/01/20 04:26:33;;;;;;;;;;;;;;;;;;2109926;28;19935;-62
2022/01/20 04:27:38;;;;;;;;;;;;;;;;;;2109792;28;20025;-64
2022/01/20 04:28:56;;;;;;;;;;;;;;;;;;2109986;28;19971;-64
2022/01/20 04:30:05;;;;;;;;;;;;;;;;;;2109887;28;19931;-63
2022/01/20 04:31:12;;;;;;;;;;;;;;;;;;2109862;28;20054;-62
2022/01/20 04:32:21;;;;;;;;;;;;;;;;;;2109702;28;19928;-61
2022/01/20 04:33:25;;;;;;;;;;;;;;;;;;2109467;28;19967;-69
2022/01/20 04:34:31;;;;;;;;;;;;;;;;;;2109376;28;19925;-66
2022/01/20 04:35:41;;;;;;;;;;;;;;;;;;2109421;28;20153;-66
2022/01/20 04:36:51;;;;;;;;;;;;;;;;;;2109857;28;20727;-67
2022/01/20 04:37:56;;;;;;;;;;;;;;;;;;2109794;28;19930;-65
2022/01/20 04:39:12;;;;;;;;;;;;;;;;;;2109809;28;20710;-66
2022/01/20 04:40:24;;;;;;;;;;;;;;;;;;2109780;28;20006;-66
2022/01/20 04:41:33;;;;;;;;;;;;;;;;;;2109185;28;20674;-68
2022/01/20 04:42:47;;;;;;;;;;;;;;;;;;2109273;28;20856;-63
2022/01/20 04:43:48;;;;;;;;;;;;;;;;;;2109690;28;19935;-67
2022/01/20 04:44:59;;;;;;;;;;;;;;;;;;2109616;28;19928;-67
2022/01/20 04:46:17;;;;;;;;;;;;;;;;;;2109764;28;20738;-63
2022/01/20 04:47:46;;;;;;;;;;;;;;;;;;2109863;28;19990;-63
2022/01/20 04:57:21;;;;;;;;;;;;;;;;;;2109249;28;20004;-61
2022/01/20 04:58:22;;;;;;;;;;;;;;;;;;2109427;28;19983;-61
2022/01/20 04:59:27;;;;;;;;;;;;;;;;;;2109606;28;19924;-63
2022/01/20 05:00:31;;;;;;;;;;;;;;;;;;2109586;28;20020;-62
2022/01/20 05:01:34;;;;;;;;;;;;;;;;;;2109580;28;19935;-64
2022/01/20 05:02:38;;;;;;;;;;;;;;;;;;2109648;28;19931;-60
2022/01/20 05:03:43;;;;;;;;;;;;;;;;;;2108532;28;19931;-63
2022/01/20 05:04:47;;;;;;;;;;;;;;;;;;2109602;28;20724;-64
2022/01/20 05:05:50;;;;;;;;;;;;;;;;;;2109639;28;20753;-61
2022/01/20 05:06:56;;;;;;;;;;;;;;;;;;2109072;28;19935;-60
2022/01/20 05:08:00;;;;;;;;;;;;;;;;;;2109106;28;19925;-64
2022/01/20 05:09:03;;;;;;;;;;;;;;;;;;2108981;28;19931;-62
2022/01/20 05:10:08;;;;;;;;;;;;;;;;;;2108589;28;20009;-61
2022/01/20 05:11:14;;;;;;;;;;;;;;;;;;2109620;28;20767;-61
2022/01/20 05:12:24;;;;;;;;;;;;;;;;;;2101133;28;19959;-63
2022/01/20 05:13:33;;;;;;;;;;;;;;;;;;2101165;28;19932;-61
2022/01/20 05:14:35;;;;;;;;;;;;;;;;;;2101187;28;20867;-60
2022/01/20 05:15:38;;;;;;;;;;;;;;;;;;2101021;28;20739;-62
2022/01/20 05:16:42;;;;;;;;;;;;;;;;;;2100431;28;20786;-61
2022/01/20 05:17:44;;;;;;;;;;;;;;;;;;2100511;28;20679;-60
2022/01/20 05:18:46;;;;;;;;;;;;;;;;;;2100980;28;19925;-61
2022/01/20 05:19:48;;;;;;;;;;;;;;;;;;2101106;28;20674;-61
2022/01/20 05:20:50;;;;;;;;;;;;;;;;;;2100814;28;20049;-66
2022/01/20 05:21:52;;;;;;;;;;;;;;;;;;2100978;28;20007;-72
2022/01/20 05:22:55;;;;;;;;;;;;;;;;;;2101056;28;19932;-60
2022/01/20 05:24:00;;;;;;;;;;;;;;;;;;2101144;28;20002;-65
2022/01/20 05:25:05;;;;;;;;;;;;;;;;;;2101180;28;19925;-64
2022/01/20 05:26:09;;;;;;;;;;;;;;;;;;2101169;28;20027;-61
2022/01/20 05:27:13;;;;;;;;;;;;;;;;;;2100596;28;19983;-62
2022/01/20 05:28:17;;;;;;;;;;;;;;;;;;2100539;28;20739;-60
2022/01/20 05:29:20;;;;;;;;;;;;;;;;;;2101134;28;20878;-66
2022/01/20 05:30:23;;;;;;;;;;;;;;;;;;2101000;28;20003;-60
2022/01/20 05:31:27;;;;;;;;;;;;;;;;;;2101069;28;19928;-62
2022/01/20 05:32:31;;;;;;;;;;;;;;;;;;2101046;28;19924;-61
2022/01/20 05:33:37;;;;;;;;;;;;;;;;;;2100894;28;19929;-64
2022/01/20 05:34:39;;;;;;;;;;;;;;;;;;2101081;28;19994;-61
2022/01/20 05:35:43;;;;;;;;;;;;;;;;;;2100990;28;19925;-60
2022/01/20 05:36:48;;;;;;;;;;;;;;;;;;2100934;28;19925;-63
2022/01/20 05:37:52;;;;;;;;;;;;;;;;;;2101052;28;19928;-64
2022/01/20 05:38:54;;;;;;;;;;;;;;;;;;2100284;28;20058;-62
2022/01/20 05:39:57;;;;;;;;;;;;;;;;;;2100413;28;20117;-62
2022/01/20 05:41:01;;;;;;;;;;;;;;;;;;2100520;28;19931;-63
2022/01/20 05:42:04;;;;;;;;;;;;;;;;;;2100472;28;20002;-60
2022/01/20 05:43:07;;;;;;;;;;;;;;;;;;2100987;28;19928;-60
2022/01/20 05:44:09;;;;;;;;;;;;;;;;;;2100757;28;19925;-62
2022/01/20 05:45:13;;;;;;;;;;;;;;;;;;2100837;28;20631;-60
2022/01/20 05:46:21;;;;;;;;;;;;;;;;;;2101541;28;19925;-61
2022/01/20 05:47:29;;;;;;;;;;;;;;;;;;2101796;28;19975;-62
2022/01/20 05:48:36;;;;;;;;;;;;;;;;;;2101738;28;19929;-60
2022/01/20 05:49:38;;;;;;;;;;;;;;;;;;2101657;28;20743;-60
2022/01/20 05:50:40;;;;;;;;;;;;;;;;;;2101904;28;19925;-65
2022/01/20 05:51:44;;;;;;;;;;;;;;;;;;2101960;28;19991;-60
2022/01/20 05:52:46;;;;;;;;;;;;;;;;;;2102419;28;20062;-61
2022/01/20 05:53:50;;;;;;;;;;;;;;;;;;2102422;28;19955;-60
2022/01/20 05:54:51;;;;;;;;;;;;;;;;;;2102484;28;20721;-66
2022/01/20 05:55:54;;;;;;;;;;;;;;;;;;2102244;28;20007;-60
2022/01/20 05:56:56;;;;;;;;;;;;;;;;;;2102227;28;19984;-61
2022/01/20 05:57:59;;;;;;;;;;;;;;;;;;2108181;28;19936;-62
2022/01/20 05:59:00;;;;;;;;;;;;;;;;;;2114957;28;20085;-59
2022/01/20 06:00:03;;;;;;;;;;;;;;;;;;2117788;28;19928;-60
2022/01/20 06:01:06;;;;;;;;;;;;;;;;;;2109233;28;20029;-60
2022/01/20 06:02:24;;;;;;;;;;;;;;;;;;2109728;28;19928;-65
2022/01/20 06:03:36;;;;;;;;;;;;;;;;;;2110689;28;19998;-63
2022/01/20 06:04:38;;;;;;;;;;;;;;;;;;2112080;28;19928;-63
2022/01/20 06:05:41;;;;;;;;;;;;;;;;;;2117668;27;20005;-70
2022/01/20 06:06:44;;;;;;;;;;;;;;;;;;2117502;28;19924;-67
2022/01/20 06:07:46;;;;;;;;;;;;;;;;;;2117402;28;20834;-60
2022/01/20 06:08:49;;;;;;;;;;;;;;;;;;2111526;28;19929;-69
2022/01/20 06:09:51;;;;;;;;;;;;;;;;;;2111387;28;20923;-65
2022/01/20 06:10:55;;;;;;;;;;;;;;;;;;2117103;28;19928;-61
2022/01/20 06:11:58;;;;;;;;;;;;;;;;;;2111044;28;20026;-61
2022/01/20 06:13:01;;;;;;;;;;;;;;;;;;2110789;28;19936;-64
2022/01/20 06:14:03;;;;;;;;;;;;;;;;;;2111981;28;19979;-60
2022/01/20 06:15:04;;;;;;;;;;;;;;;;;;2108987;28;20806;-63
2022/01/20 06:16:07;;;;;;;;;;;;;;;;;;2109470;28;20748;-61
2022/01/20 06:17:11;;;;;;;;;;;;;;;;;;2108850;28;20573;-59
2022/01/20 06:18:15;;;;;;;;;;;;;;;;;;2112887;28;19936;-60
2022/01/20 06:19:16;;;;;;;;;;;;;;;;;;2109278;28;19928;-64
2022/01/20 06:20:19;;;;;;;;;;;;;;;;;;2108847;28;19928;-60
2022/01/20 06:21:21;;;;;;;;;;;;;;;;;;2108422;28;19935;-60
2022/01/20 06:22:24;;;;;;;;;;;;;;;;;;2108659;28;20821;-60
2022/01/20 06:23:27;;;;;;;;;;;;;;;;;;2107472;28;20736;-65
2022/01/20 06:24:30;;;;;;;;;;;;;;;;;;2108852;28;19928;-67
2022/01/20 06:25:33;;;;;;;;;;;;;;;;;;2111534;28;20775;-61
2022/01/20 06:26:36;;;;;;;;;;;;;;;;;;2117851;28;20778;-60
2022/01/20 06:27:38;;;;;;;;;;;;;;;;;;2114757;28;19929;-61
2022/01/20 06:28:41;;;;;;;;;;;;;;;;;;2116302;28;19929;-62
2022/01/20 06:29:43;;;;;;;;;;;;;;;;;;2117577;27;19935;-59
2022/01/20 06:30:46;;;;;;;;;;;;;;;;;;2110924;28;19931;-58
2022/01/20 06:31:49;;;;;;;;;;;;;;;;;;2108498;28;19934;-61
2022/01/20 06:32:54;;;;;;;;;;;;;;;;;;2109163;28;20045;-60
2022/01/20 06:33:57;;;;;;;;;;;;;;;;;;2114456;28;19971;-61
2022/01/20 06:34:58;;;;;;;;;;;;;;;;;;2116099;28;21391;-58
2022/01/20 06:36:02;;;;;;;;;;;;;;;;;;2115257;28;20802;-60
2022/01/20 06:37:05;;;;;;;;;;;;;;;;;;2112055;28;20752;-60
2022/01/20 06:38:08;;;;;;;;;;;;;;;;;;2112892;28;19932;-59
2022/01/20 06:39:10;;;;;;;;;;;;;;;;;;2108003;28;20052;-59
2022/01/20 06:40:12;;;;;;;;;;;;;;;;;;2108509;28;19991;-61
2022/01/20 06:41:15;;;;;;;;;;;;;;;;;;2108415;28;19950;-62
2022/01/20 06:42:18;;;;;;;;;;;;;;;;;;2108330;28;19928;-60
2022/01/20 06:43:21;;;;;;;;;;;;;;;;;;2109466;28;20054;-59
2022/01/20 06:44:25;;;;;;;;;;;;;;;;;;2114559;28;19928;-59
2022/01/20 06:45:28;;;;;;;;;;;;;;;;;;2115298;27;19931;-59
2022/01/20 06:46:31;;;;;;;;;;;;;;;;;;2108821;28;20826;-62
2022/01/20 06:47:34;;;;;;;;;;;;;;;;;;2107838;28;19935;-59
2022/01/20 06:48:37;;;;;;;;;;;;;;;;;;2109625;28;19939;-59
2022/01/20 06:49:39;;;;;;;;;;;;;;;;;;2116314;28;19928;-58
2022/01/20 06:50:41;;;;;;;;;;;;;;;;;;2116742;28;19935;-60
2022/01/20 06:51:46;;;;;;;;;;;;;;;;;;2117637;28;19935;-58
2022/01/20 06:52:48;;;;;;;;;;;;;;;;;;2116951;27;19935;-58
2022/01/20 06:53:51;;;;;;;;;;;;;;;;;;2117136;28;19931;-64
2022/01/20 06:54:53;;;;;;;;;;;;;;;;;;2117872;28;19928;-59
2022/01/20 06:55:56;;;;;;;;;;;;;;;;;;2108118;28;20184;-67
2022/01/20 06:56:59;;;;;;;;;;;;;;;;;;2107637;28;19929;-60
2022/01/20 06:58:02;;;;;;;;;;;;;;;;;;2108734;28;19932;-71
2022/01/20 06:59:06;;;;;;;;;;;;;;;;;;2107134;28;20691;-77
2022/01/20 07:00:08;;;;;;;;;;;;;;;;;;2108329;28;20814;-72
2022/01/20 07:01:11;;;;;;;;;;;;;;;;;;2109076;28;21302;-77
2022/01/20 07:02:14;;;;;;;;;;;;;;;;;;2106797;28;19928;-72
2022/01/20 07:03:17;;;;;;;;;;;;;;;;;;2115628;28;19928;-74
2022/01/20 07:04:20;;;;;;;;;;;;;;;;;;2109171;28;20010;-75
2022/01/20 07:05:21;;;;;;;;;;;;;;;;;;2116961;28;19947;-69
2022/01/20 07:06:25;;;;;;;;;;;;;;;;;;2111472;28;19939;-75
2022/01/20 07:07:29;;;;;;;;;;;;;;;;;;2113654;28;19934;-69
2022/01/20 07:08:33;;;;;;;;;;;;;;;;;;2110209;28;19936;-67
2022/01/20 07:09:34;;;;;;;;;;;;;;;;;;2115050;28;20223;-77
2022/01/20 07:10:37;;;;;;;;;;;;;;;;;;2109217;28;19928;-71
2022/01/20 07:11:42;;;;;;;;;;;;;;;;;;2112207;28;19932;-71
2022/01/20 07:12:46;;;;;;;;;;;;;;;;;;2116752;28;19928;-71
2022/01/20 07:13:51;;;;;;;;;;;;;;;;;;2108443;28;19933;-72
2022/01/20 07:14:55;;;;;;;;;;;;;;;;;;2110670;28;19976;-71
2022/01/20 07:15:59;;;;;;;;;;;;;;;;;;2107344;28;19928;-71
2022/01/20 07:17:02;;;;;;;;;;;;;;;;;;2111055;28;19972;-71
2022/01/20 07:18:06;;;;;;;;;;;;;;;;;;2111393;28;19952;-73
2022/01/20 07:19:08;;;;;;;;;;;;;;;;;;2109166;28;19929;-73
2022/01/20 07:20:11;;;;;;;;;;;;;;;;;;2116951;27;19966;-71
2022/01/20 07:21:14;;;;;;;;;;;;;;;;;;2115802;28;19928;-73
2022/01/20 07:22:17;;;;;;;;;;;;;;;;;;2116246;28;20135;-69
2022/01/20 07:23:20;;;;;;;;;;;;;;;;;;2117163;28;21204;-72
2022/01/20 07:24:23;;;;;;;;;;;;;;;;;;2117294;28;19928;-72
2022/01/20 07:25:24;;;;;;;;;;;;;;;;;;2111351;28;19928;-71
2022/01/20 07:26:29;;;;;;;;;;;;;;;;;;2108205;28;20058;-71
2022/01/20 07:27:32;;;;;;;;;;;;;;;;;;2108268;28;19931;-79
2022/01/20 07:28:36;;;;;;;;;;;;;;;;;;2107351;28;21403;-70
2022/01/20 07:29:37;;;;;;;;;;;;;;;;;;2109569;28;20800;-72
2022/01/20 07:30:41;;;;;;;;;;;;;;;;;;2116851;27;20045;-72
2022/01/20 07:31:46;;;;;;;;;;;;;;;;;;2116757;28;19928;-70
2022/01/20 07:32:51;;;;;;;;;;;;;;;;;;2116517;28;19932;-73
2022/01/20 07:33:54;;;;;;;;;;;;;;;;;;2108423;28;19928;-73
2022/01/20 07:34:58;;;;;;;;;;;;;;;;;;2109550;28;19928;-73
2022/01/20 07:36:03;;;;;;;;;;;;;;;;;;2108172;28;20065;-75
2022/01/20 07:37:08;;;;;;;;;;;;;;;;;;2108358;28;19983;-74
2022/01/20 07:38:11;;;;;;;;;;;;;;;;;;2108408;28;20725;-74
2022/01/20 07:39:15;;;;;;;;;;;;;;;;;;2108728;28;19936;-74
2022/01/20 07:40:20;;;;;;;;;;;;;;;;;;2108237;28;19935;-72
2022/01/20 07:41:26;;;;;;;;;;;;;;;;;;2108269;28;20819;-75
2022/01/20 07:42:32;;;;;;;;;;;;;;;;;;2107421;28;20809;-74
2022/01/20 07:43:39;;;;;;;;;;;;;;;;;;2107104;28;20053;-73
2022/01/20 07:44:46;;;;;;;;;;;;;;;;;;2107565;28;19929;-73
2022/01/20 07:45:54;;;;;;;;;;;;;;;;;;2109773;27;19936;-74
2022/01/20 07:47:02;;;;;;;;;;;;;;;;;;2117011;27;19928;-73
2022/01/20 07:48:06;;;;;;;;;;;;;;;;;;2114883;28;19928;-69
2022/01/20 07:49:12;;;;;;;;;;;;;;;;;;2107375;28;19929;-69
2022/01/20 07:50:20;;;;;;;;;;;;;;;;;;2106973;28;19935;-69
2022/01/20 07:51:29;;;;;;;;;;;;;;;;;;2104011;28;19929;-69
2022/01/20 07:52:39;;;;;;;;;;;;;;;;;;2108332;28;20043;-70
2022/01/20 07:53:48;;;;;;;;;;;;;;;;;;2108179;28;20785;-70
2022/01/20 07:54:54;;;;;;;;;;;;;;;;;;2107216;28;20054;-70
2022/01/20 07:56:03;;;;;;;;;;;;;;;;;;2106400;28;20745;-70
2022/01/20 07:57:10;;;;;;;;;;;;;;;;;;2105888;28;19928;-70
2022/01/20 07:58:15;;;;;;;;;;;;;;;;;;2106740;28;20047;-70
2022/01/20 07:59:24;;;;;;;;;;;;;;;;;;2103890;28;19924;-70
2022/01/20 08:00:32;;;;;;;;;;;;;;;;;;2112417;28;21259;-71
2022/01/20 08:01:38;;;;;;;;;;;;;;;;;;2106185;28;19971;-71
2022/01/20 08:02:43;;;;;;;;;;;;;;;;;;2107283;28;19937;-70
2022/01/20 08:03:49;;;;;;;;;;;;;;;;;;2112304;28;20781;-71
2022/01/20 08:04:53;;;;;;;;;;;;;;;;;;2114709;28;20830;-70
2022/01/20 08:05:58;;;;;;;;;;;;;;;;;;2108451;28;19936;-71
2022/01/20 08:07:02;;;;;;;;;;;;;;;;;;2115534;28;20007;-70
2022/01/20 08:08:08;;;;;;;;;;;;;;;;;;2114833;27;19978;-70
2022/01/20 08:09:12;;;;;;;;;;;;;;;;;;2114576;28;19997;-70
2022/01/20 08:10:15;;;;;;;;;;;;;;;;;;2116548;28;20077;-70
2022/01/20 08:11:22;;;;;;;;;;;;;;;;;;2115830;28;20819;-70
2022/01/20 08:12:30;;;;;;;;;;;;;;;;;;2115922;28;20802;-70
2022/01/20 08:13:51;;;;;;;;;;;;;;;;;;2111288;28;20773;-70
2022/01/20 08:15:14;;;;;;;;;;;;;;;;;;2113371;28;20739;-70
2022/01/20 08:16:35;;;;;;;;;;;;;;;;;;2107451;28;20755;-69
2022/01/20 08:17:57;;;;;;;;;;;;;;;;;;2108341;28;19928;-70
2022/01/20 08:19:19;;;;;;;;;;;;;;;;;;2107569;28;20018;-70
2022/01/20 08:20:40;;;;;;;;;;;;;;;;;;2113637;28;20675;-70
2022/01/20 08:22:02;;;;;;;;;;;;;;;;;;2116533;28;20802;-70
2022/01/20 08:23:23;;;;;;;;;;;;;;;;;;2116502;28;19935;-70
2022/01/20 08:24:49;;;;;;;;;;;;;;;;;;2115830;28;19935;-69
2022/01/20 08:26:05;;;;;;;;;;;;;;;;;;2115100;28;19936;-69
2022/01/20 08:27:17;;;;;;;;;;;;;;;;;;2116521;28;19928;-69
2022/01/20 08:28:24;;;;;;;;;;;;;;;;;;2116007;28;19928;-69
2022/01/20 08:29:32;;;;;;;;;;;;;;;;;;2116074;28;19935;-70